sensor_id;sensor_type;location;lat;lon;timestamp;pressure;altitude;pressure_sealevel;temperature;humidity
19676;BME280;39539;52.202;9.876;2022-11-20T00:02:18;100500.56;;;-4.67;100.00
19676;BME280;39539;52.202;9.876;2022-11-20T00:04:43;100512.25;;;-4.61;100.00
19676;BME280;39539;52.202;9.876;2022-11-20T00:07:09;100508.13;;;-4.64;100.00
19676;BME280;39539;52.202;9.876;2022-11-20T00:09:34;100508.13;;;-4.64;100.00
19676;BME280;39539;52.202;9.876;2022-11-20T00:11:59;100515.53;;;-4.59;100.00
19676;BME280;39539;52.202;9.876;2022-11-20T00:14:25;100501.63;;;-4.69;100.00
19676;BME280;39539;52.202;9.876;2022-11-20T00:16:51;100501.84;;;-4.72;100.00
19676;BME280;39539;52.202;9.876;2022-11-20T00:19:18;100496.66;;;-4.72;100.00
19676;BME280;39539;52.202;9.876;2022-11-20T00:21:44;100505.72;;;-4.78;100.00
19676;BME280;39539;52.202;9.876;2022-11-20T00:24:09;100509.94;;;-4.77;100.00
19676;BME280;39539;52.202;9.876;2022-11-20T00:26:36;100503.13;;;-4.78;100.00
19676;BME280;39539;52.202;9.876;2022-11-20T00:29:01;100505.56;;;-4.77;100.00
19676;BME280;39539;52.202;9.876;2022-11-20T00:31:29;100503.53;;;-4.84;100.00
19676;BME280;39539;52.202;9.876;2022-11-20T00:33:58;100494.47;;;-4.79;100.00
19676;BME280;39539;52.202;9.876;2022-11-20T00:36:25;100502.75;;;-4.74;100.00
19676;BME280;39539;52.202;9.876;2022-11-20T00:38:53;100503.34;;;-4.70;100.00
19676;BME280;39539;52.202;9.876;2022-11-20T00:41:18;100504.44;;;-4.72;100.00
19676;BME280;39539;52.202;9.876;2022-11-20T00:43:44;100501.22;;;-4.76;100.00
19676;BME280;39539;52.202;9.876;2022-11-20T00:46:12;100504.53;;;-4.74;100.00
19676;BME280;39539;52.202;9.876;2022-11-20T00:48:39;100494.97;;;-4.74;100.00
19676;BME280;39539;52.202;9.876;2022-11-20T00:51:04;100507.72;;;-4.70;100.00
19676;BME280;39539;52.202;9.876;2022-11-20T00:53:30;100498.88;;;-4.68;100.00
19676;BME280;39539;52.202;9.876;2022-11-20T00:55:58;100492.97;;;-4.70;100.00
19676;BME280;39539;52.202;9.876;2022-11-20T00:58:24;100483.19;;;-4.78;100.00
19676;BME280;39539;52.202;9.876;2022-11-20T01:00:50;100491.09;;;-4.68;100.00
19676;BME280;39539;52.202;9.876;2022-11-20T01:03:19;100490.84;;;-4.76;100.00
19676;BME280;39539;52.202;9.876;2022-11-20T01:05:44;100500.41;;;-4.77;100.00
19676;BME280;39539;52.202;9.876;2022-11-20T01:08:09;100501.22;;;-4.76;100.00
19676;BME280;39539;52.202;9.876;2022-11-20T01:10:36;100482.81;;;-4.84;100.00
19676;BME280;39539;52.202;9.876;2022-11-20T01:13:02;100486.78;;;-4.91;100.00
19676;BME280;39539;52.202;9.876;2022-11-20T01:15:46;100488.44;;;-4.90;100.00
19676;BME280;39539;52.202;9.876;2022-11-20T01:18:12;100480.78;;;-4.92;100.00
19676;BME280;39539;52.202;9.876;2022-11-20T01:20:37;100485.84;;;-4.90;100.00
19676;BME280;39539;52.202;9.876;2022-11-20T01:23:03;100490.53;;;-4.96;100.00
19676;BME280;39539;52.202;9.876;2022-11-20T01:25:29;100478.38;;;-5.06;100.00
19676;BME280;39539;52.202;9.876;2022-11-20T01:27:54;100488.28;;;-5.00;100.00
19676;BME280;39539;52.202;9.876;2022-11-20T01:30:20;100458.06;;;-5.12;100.00
19676;BME280;39539;52.202;9.876;2022-11-20T01:32:45;100491.75;;;-4.88;100.00
19676;BME280;39539;52.202;9.876;2022-11-20T01:35:10;100471.25;;;-4.91;100.00
19676;BME280;39539;52.202;9.876;2022-11-20T01:37:36;100470.75;;;-4.97;100.00
19676;BME280;39539;52.202;9.876;2022-11-20T01:40:01;100454.69;;;-5.02;100.00
19676;BME280;39539;52.202;9.876;2022-11-20T01:42:27;100471.47;;;-4.94;100.00
19676;BME280;39539;52.202;9.876;2022-11-20T01:48:14;100463.94;;;-4.98;100.00
19676;BME280;39539;52.202;9.876;2022-11-20T01:50:40;100470.88;;;-4.98;100.00
19676;BME280;39539;52.202;9.876;2022-11-20T01:53:11;100451.19;;;-5.01;100.00
19676;BME280;39539;52.202;9.876;2022-11-20T01:55:46;100445.03;;;-5.11;100.00
19676;BME280;39539;52.202;9.876;2022-11-20T01:58:13;100442.69;;;-5.03;100.00
19676;BME280;39539;52.202;9.876;2022-11-20T02:00:40;100441.59;;;-5.11;100.00
19676;BME280;39539;52.202;9.876;2022-11-20T02:03:09;100438.63;;;-5.18;100.00
19676;BME280;39539;52.202;9.876;2022-11-20T02:06:34;100440.28;;;-5.17;100.00
19676;BME280;39539;52.202;9.876;2022-11-20T02:08:57;100436.06;;;-5.07;100.00
19676;BME280;39539;52.202;9.876;2022-11-20T02:11:22;100435.25;;;-5.07;100.00
19676;BME280;39539;52.202;9.876;2022-11-20T02:13:48;100433.97;;;-5.02;100.00
19676;BME280;39539;52.202;9.876;2022-11-20T02:18:43;100447.44;;;-4.97;100.00
19676;BME280;39539;52.202;9.876;2022-11-20T02:21:18;100454.47;;;-4.99;100.00
19676;BME280;39539;52.202;9.876;2022-11-20T02:26:28;100449.53;;;-5.02;100.00
19676;BME280;39539;52.202;9.876;2022-11-20T02:28:55;100447.69;;;-5.12;100.00
19676;BME280;39539;52.202;9.876;2022-11-20T02:31:21;100435.38;;;-5.09;100.00
19676;BME280;39539;52.202;9.876;2022-11-20T02:33:47;100433.25;;;-5.15;100.00
19676;BME280;39539;52.202;9.876;2022-11-20T02:36:15;100439.84;;;-5.11;100.00
19676;BME280;39539;52.202;9.876;2022-11-20T02:38:41;100436.75;;;-5.16;100.00
19676;BME280;39539;52.202;9.876;2022-11-20T02:41:07;100430.66;;;-5.15;100.00
19676;BME280;39539;52.202;9.876;2022-11-20T02:43:33;100423.47;;;-5.11;100.00
19676;BME280;39539;52.202;9.876;2022-11-20T02:45:58;100411.06;;;-5.19;100.00
19676;BME280;39539;52.202;9.876;2022-11-20T02:48:23;100416.25;;;-5.19;100.00
19676;BME280;39539;52.202;9.876;2022-11-20T02:50:49;100411.28;;;-5.22;100.00
19676;BME280;39539;52.202;9.876;2022-11-20T02:53:14;100412.94;;;-5.21;100.00
19676;BME280;39539;52.202;9.876;2022-11-20T02:55:39;100407.97;;;-5.24;100.00
19676;BME280;39539;52.202;9.876;2022-11-20T02:58:05;100410.56;;;-5.24;100.00
19676;BME280;39539;52.202;9.876;2022-11-20T03:00:30;100408.44;;;-5.30;100.00
19676;BME280;39539;52.202;9.876;2022-11-20T03:02:57;100406.06;;;-5.33;100.00
19676;BME280;39539;52.202;9.876;2022-11-20T03:05:22;100411.75;;;-5.28;100.00
19676;BME280;39539;52.202;9.876;2022-11-20T03:07:48;100407.00;;;-5.34;100.00
19676;BME280;39539;52.202;9.876;2022-11-20T03:10:13;100415.28;;;-5.29;100.00
19676;BME280;39539;52.202;9.876;2022-11-20T03:12:38;100401.84;;;-5.34;100.00
19676;BME280;39539;52.202;9.876;2022-11-20T03:15:04;100415.06;;;-5.26;100.00
19676;BME280;39539;52.202;9.876;2022-11-20T03:17:29;100408.44;;;-5.30;100.00
19676;BME280;39539;52.202;9.876;2022-11-20T03:19:56;100403.38;;;-5.32;100.00
19676;BME280;39539;52.202;9.876;2022-11-20T03:22:22;100405.13;;;-5.32;100.00
19676;BME280;39539;52.202;9.876;2022-11-20T03:24:47;100411.84;;;-5.30;100.00
19676;BME280;39539;52.202;9.876;2022-11-20T03:27:13;100407.38;;;-5.28;100.00
19676;BME280;39539;52.202;9.876;2022-11-20T03:29:38;100404.78;;;-5.28;100.00
19676;BME280;39539;52.202;9.876;2022-11-20T03:32:04;100395.25;;;-5.27;100.00
19676;BME280;39539;52.202;9.876;2022-11-20T03:34:29;100397.03;;;-5.28;100.00
19676;BME280;39539;52.202;9.876;2022-11-20T03:36:54;100399.75;;;-5.29;100.00
19676;BME280;39539;52.202;9.876;2022-11-20T03:39:20;100398.06;;;-5.30;100.00
19676;BME280;39539;52.202;9.876;2022-11-20T03:41:45;100392.53;;;-5.37;100.00
19676;BME280;39539;52.202;9.876;2022-11-20T03:44:11;100393.94;;;-5.33;100.00
19676;BME280;39539;52.202;9.876;2022-11-20T03:46:37;100388.66;;;-5.31;100.00
19676;BME280;39539;52.202;9.876;2022-11-20T03:49:03;100390.28;;;-5.30;100.00
19676;BME280;39539;52.202;9.876;2022-11-20T03:51:30;100382.16;;;-5.37;100.00
19676;BME280;39539;52.202;9.876;2022-11-20T03:53:59;100388.97;;;-5.36;100.00
19676;BME280;39539;52.202;9.876;2022-11-20T03:56:28;100385.28;;;-5.45;100.00
19676;BME280;39539;52.202;9.876;2022-11-20T03:58:54;100389.06;;;-5.49;100.00
19676;BME280;39539;52.202;9.876;2022-11-20T04:01:28;100395.44;;;-5.42;100.00
19676;BME280;39539;52.202;9.876;2022-11-20T04:03:55;100390.03;;;-5.38;100.00
19676;BME280;39539;52.202;9.876;2022-11-20T04:06:23;100373.66;;;-5.39;100.00
19676;BME280;39539;52.202;9.876;2022-11-20T04:08:49;100370.34;;;-5.41;100.00
19676;BME280;39539;52.202;9.876;2022-11-20T04:11:20;100366.63;;;-5.37;100.00
19676;BME280;39539;52.202;9.876;2022-11-20T04:13:48;100383.22;;;-5.39;100.00
19676;BME280;39539;52.202;9.876;2022-11-20T04:16:14;100375.94;;;-5.34;100.00
19676;BME280;39539;52.202;9.876;2022-11-20T04:18:39;100362.03;;;-5.33;100.00
19676;BME280;39539;52.202;9.876;2022-11-20T04:21:05;100365.19;;;-5.41;100.00
19676;BME280;39539;52.202;9.876;2022-11-20T04:23:31;100355.31;;;-5.36;100.00
19676;BME280;39539;52.202;9.876;2022-11-20T04:26:09;100369.03;;;-5.23;100.00
19676;BME280;39539;52.202;9.876;2022-11-20T04:28:35;100363.50;;;-5.18;100.00
19676;BME280;39539;52.202;9.876;2022-11-20T04:31:12;100367.53;;;-5.14;100.00
19676;BME280;39539;52.202;9.876;2022-11-20T04:33:38;100361.28;;;-5.11;100.00
19676;BME280;39539;52.202;9.876;2022-11-20T04:38:40;100372.41;;;-4.98;100.00
19676;BME280;39539;52.202;9.876;2022-11-20T04:41:07;100371.22;;;-4.94;100.00
19676;BME280;39539;52.202;9.876;2022-11-20T04:43:33;100368.75;;;-4.84;100.00
19676;BME280;39539;52.202;9.876;2022-11-20T04:46:00;100362.41;;;-4.91;100.00
19676;BME280;39539;52.202;9.876;2022-11-20T04:48:27;100368.75;;;-4.84;100.00
19676;BME280;39539;52.202;9.876;2022-11-20T04:50:53;100365.47;;;-4.86;100.00
19676;BME280;39539;52.202;9.876;2022-11-20T04:53:19;100371.34;;;-4.84;100.00
19676;BME280;39539;52.202;9.876;2022-11-20T04:55:45;100360.53;;;-4.89;100.00
19676;BME280;39539;52.202;9.876;2022-11-20T04:58:11;100382.78;;;-4.76;100.00
19676;BME280;39539;52.202;9.876;2022-11-20T05:00:37;100366.41;;;-4.76;100.00
19676;BME280;39539;52.202;9.876;2022-11-20T05:03:03;100377.16;;;-4.69;100.00
19676;BME280;39539;52.202;9.876;2022-11-20T05:05:29;100373.97;;;-4.62;100.00
19676;BME280;39539;52.202;9.876;2022-11-20T05:07:58;100372.56;;;-4.66;100.00
19676;BME280;39539;52.202;9.876;2022-11-20T05:10:25;100368.34;;;-4.56;100.00
19676;BME280;39539;52.202;9.876;2022-11-20T05:12:50;100360.78;;;-4.47;100.00
19676;BME280;39539;52.202;9.876;2022-11-20T05:15:17;100361.00;;;-4.39;100.00
19676;BME280;39539;52.202;9.876;2022-11-20T05:17:49;100362.06;;;-4.31;100.00
19676;BME280;39539;52.202;9.876;2022-11-20T05:20:15;100350.78;;;-4.30;100.00
19676;BME280;39539;52.202;9.876;2022-11-20T05:22:40;100357.00;;;-4.21;100.00
19676;BME280;39539;52.202;9.876;2022-11-20T05:25:06;100350.63;;;-4.28;100.00
19676;BME280;39539;52.202;9.876;2022-11-20T05:27:31;100343.66;;;-4.28;100.00
19676;BME280;39539;52.202;9.876;2022-11-20T05:29:57;100338.28;;;-4.24;100.00
19676;BME280;39539;52.202;9.876;2022-11-20T05:32:25;100334.16;;;-4.27;100.00
19676;BME280;39539;52.202;9.876;2022-11-20T05:34:52;100320.13;;;-4.47;100.00
19676;BME280;39539;52.202;9.876;2022-11-20T05:37:17;100330.13;;;-4.42;100.00
19676;BME280;39539;52.202;9.876;2022-11-20T05:39:43;100337.09;;;-4.43;100.00
19676;BME280;39539;52.202;9.876;2022-11-20T05:42:08;100328.50;;;-4.55;100.00
19676;BME280;39539;52.202;9.876;2022-11-20T05:44:52;100344.41;;;-4.48;100.00
19676;BME280;39539;52.202;9.876;2022-11-20T05:47:17;100341.56;;;-4.34;100.00
19676;BME280;39539;52.202;9.876;2022-11-20T05:49:43;100331.78;;;-4.30;100.00
19676;BME280;39539;52.202;9.876;2022-11-20T05:52:08;100354.28;;;-4.31;100.00
19676;BME280;39539;52.202;9.876;2022-11-20T05:54:34;100358.41;;;-4.17;100.00
19676;BME280;39539;52.202;9.876;2022-11-20T05:56:59;100346.16;;;-4.15;100.00
19676;BME280;39539;52.202;9.876;2022-11-20T05:59:24;100350.88;;;-4.20;100.00
19676;BME280;39539;52.202;9.876;2022-11-20T06:01:50;100351.25;;;-4.24;100.00
19676;BME280;39539;52.202;9.876;2022-11-20T06:04:15;100353.22;;;-4.17;100.00
19676;BME280;39539;52.202;9.876;2022-11-20T06:06:41;100333.44;;;-4.29;100.00
19676;BME280;39539;52.202;9.876;2022-11-20T06:09:06;100341.09;;;-4.28;100.00
19676;BME280;39539;52.202;9.876;2022-11-20T06:11:32;100356.28;;;-4.12;100.00
19676;BME280;39539;52.202;9.876;2022-11-20T06:13:57;100336.75;;;-4.27;100.00
19676;BME280;39539;52.202;9.876;2022-11-20T06:16:22;100351.81;;;-4.21;100.00
19676;BME280;39539;52.202;9.876;2022-11-20T06:18:48;100356.44;;;-4.13;100.00
19676;BME280;39539;52.202;9.876;2022-11-20T06:21:15;100352.53;;;-4.08;100.00
19676;BME280;39539;52.202;9.876;2022-11-20T06:23:41;100345.09;;;-4.12;100.00
19676;BME280;39539;52.202;9.876;2022-11-20T06:26:09;100349.22;;;-4.10;100.00
19676;BME280;39539;52.202;9.876;2022-11-20T06:28:41;100346.84;;;-4.01;100.00
19676;BME280;39539;52.202;9.876;2022-11-20T06:31:09;100340.09;;;-3.93;100.00
19676;BME280;39539;52.202;9.876;2022-11-20T06:33:36;100341.13;;;-3.84;100.00
19676;BME280;39539;52.202;9.876;2022-11-20T06:36:03;100342.06;;;-3.85;100.00
19676;BME280;39539;52.202;9.876;2022-11-20T06:38:29;100341.75;;;-3.92;100.00
19676;BME280;39539;52.202;9.876;2022-11-20T06:40:55;100336.19;;;-3.87;100.00
19676;BME280;39539;52.202;9.876;2022-11-20T06:43:22;100341.97;;;-3.84;100.00
19676;BME280;39539;52.202;9.876;2022-11-20T06:45:52;100331.47;;;-3.82;100.00
19676;BME280;39539;52.202;9.876;2022-11-20T06:48:18;100335.66;;;-3.70;100.00
19676;BME280;39539;52.202;9.876;2022-11-20T06:50:43;100333.06;;;-3.70;100.00
19676;BME280;39539;52.202;9.876;2022-11-20T06:53:09;100327.84;;;-3.58;100.00
19676;BME280;39539;52.202;9.876;2022-11-20T06:55:34;100318.84;;;-3.54;100.00
19676;BME280;39539;52.202;9.876;2022-11-20T06:57:59;100332.03;;;-3.46;100.00
19676;BME280;39539;52.202;9.876;2022-11-20T07:00:25;100313.59;;;-3.43;100.00
19676;BME280;39539;52.202;9.876;2022-11-20T07:02:50;100319.69;;;-3.33;100.00
19676;BME280;39539;52.202;9.876;2022-11-20T07:05:17;100319.31;;;-3.28;100.00
19676;BME280;39539;52.202;9.876;2022-11-20T07:07:42;100293.50;;;-3.41;100.00
19676;BME280;39539;52.202;9.876;2022-11-20T07:10:09;100316.34;;;-3.24;100.00
19676;BME280;39539;52.202;9.876;2022-11-20T07:12:35;100297.00;;;-3.31;100.00
19676;BME280;39539;52.202;9.876;2022-11-20T07:15:00;100316.94;;;-3.31;100.00
19676;BME280;39539;52.202;9.876;2022-11-20T07:17:26;100305.22;;;-3.26;100.00
19676;BME280;39539;52.202;9.876;2022-11-20T07:19:51;100329.97;;;-3.10;100.00
19676;BME280;39539;52.202;9.876;2022-11-20T07:22:17;100323.00;;;-3.10;100.00
19676;BME280;39539;52.202;9.876;2022-11-20T07:24:42;100321.00;;;-3.18;100.00
19676;BME280;39539;52.202;9.876;2022-11-20T07:27:07;100323.19;;;-3.23;100.00
19676;BME280;39539;52.202;9.876;2022-11-20T07:29:33;100322.09;;;-3.20;100.00
19676;BME280;39539;52.202;9.876;2022-11-20T07:31:58;100322.41;;;-3.34;100.00
19676;BME280;39539;52.202;9.876;2022-11-20T07:34:24;100332.31;;;-3.28;100.00
19676;BME280;39539;52.202;9.876;2022-11-20T07:36:49;100326.22;;;-3.18;100.00
19676;BME280;39539;52.202;9.876;2022-11-20T07:39:15;100330.47;;;-2.96;100.00
19676;BME280;39539;52.202;9.876;2022-11-20T07:41:40;100327.81;;;-2.75;100.00
19676;BME280;39539;52.202;9.876;2022-11-20T07:44:06;100328.97;;;-2.67;100.00
19676;BME280;39539;52.202;9.876;2022-11-20T07:46:31;100336.44;;;-2.53;100.00
19676;BME280;39539;52.202;9.876;2022-11-20T07:48:57;100332.63;;;-2.49;100.00
19676;BME280;39539;52.202;9.876;2022-11-20T07:51:22;100333.47;;;-2.39;100.00
19676;BME280;39539;52.202;9.876;2022-11-20T07:53:50;100331.47;;;-2.26;100.00
19676;BME280;39539;52.202;9.876;2022-11-20T07:56:16;100338.22;;;-2.13;100.00
19676;BME280;39539;52.202;9.876;2022-11-20T07:58:41;100327.38;;;-2.18;100.00
19676;BME280;39539;52.202;9.876;2022-11-20T08:01:07;100328.06;;;-2.16;100.00
19676;BME280;39539;52.202;9.876;2022-11-20T08:03:33;100338.63;;;-2.08;100.00
19676;BME280;39539;52.202;9.876;2022-11-20T08:05:59;100342.59;;;-2.04;100.00
19676;BME280;39539;52.202;9.876;2022-11-20T08:08:26;100329.97;;;-2.18;100.00
19676;BME280;39539;52.202;9.876;2022-11-20T08:10:51;100323.44;;;-2.03;100.00
19676;BME280;39539;52.202;9.876;2022-11-20T08:13:17;100325.88;;;-2.11;100.00
19676;BME280;39539;52.202;9.876;2022-11-20T08:16:01;100326.72;;;-2.01;100.00
19676;BME280;39539;52.202;9.876;2022-11-20T08:18:26;100330.06;;;-1.89;100.00
19676;BME280;39539;52.202;9.876;2022-11-20T08:20:52;100340.88;;;-1.84;100.00
19676;BME280;39539;52.202;9.876;2022-11-20T08:23:17;100335.53;;;-1.73;100.00
19676;BME280;39539;52.202;9.876;2022-11-20T08:25:42;100345.72;;;-1.60;100.00
19676;BME280;39539;52.202;9.876;2022-11-20T08:28:09;100328.03;;;-1.66;100.00
19676;BME280;39539;52.202;9.876;2022-11-20T08:30:36;100336.66;;;-1.66;100.00
19676;BME280;39539;52.202;9.876;2022-11-20T08:33:07;100341.31;;;-1.69;100.00
19676;BME280;39539;52.202;9.876;2022-11-20T08:35:36;100333.22;;;-1.66;100.00
19676;BME280;39539;52.202;9.876;2022-11-20T08:38:02;100339.41;;;-1.58;100.00
19676;BME280;39539;52.202;9.876;2022-11-20T08:40:28;100344.06;;;-1.61;100.00
19676;BME280;39539;52.202;9.876;2022-11-20T08:42:54;100335.13;;;-1.59;100.00
19676;BME280;39539;52.202;9.876;2022-11-20T08:45:19;100330.06;;;-1.50;100.00
19676;BME280;39539;52.202;9.876;2022-11-20T08:47:45;100335.84;;;-1.47;100.00
19676;BME280;39539;52.202;9.876;2022-11-20T08:50:13;100333.34;;;-1.68;100.00
19676;BME280;39539;52.202;9.876;2022-11-20T08:52:39;100338.28;;;-1.74;100.00
19676;BME280;39539;52.202;9.876;2022-11-20T08:55:05;100328.09;;;-1.97;100.00
19676;BME280;39539;52.202;9.876;2022-11-20T08:57:32;100322.94;;;-1.77;100.00
19676;BME280;39539;52.202;9.876;2022-11-20T08:59:58;100327.47;;;-1.70;100.00
19676;BME280;39539;52.202;9.876;2022-11-20T09:02:24;100335.28;;;-1.60;100.00
19676;BME280;39539;52.202;9.876;2022-11-20T09:04:49;100335.28;;;-1.60;100.00
19676;BME280;39539;52.202;9.876;2022-11-20T09:07:14;100332.81;;;-1.52;100.00
19676;BME280;39539;52.202;9.876;2022-11-20T09:09:39;100331.31;;;-1.45;100.00
19676;BME280;39539;52.202;9.876;2022-11-20T09:12:05;100332.25;;;-1.26;100.00
19676;BME280;39539;52.202;9.876;2022-11-20T09:14:30;100324.56;;;-1.18;100.00
19676;BME280;39539;52.202;9.876;2022-11-20T09:16:57;100321.81;;;-1.07;100.00
19676;BME280;39539;52.202;9.876;2022-11-20T09:19:23;100321.94;;;-0.99;100.00
19676;BME280;39539;52.202;9.876;2022-11-20T09:21:49;100289.66;;;-0.98;100.00
19676;BME280;39539;52.202;9.876;2022-11-20T09:24:14;100299.00;;;-0.95;100.00
19676;BME280;39539;52.202;9.876;2022-11-20T09:26:40;100262.81;;;-1.18;97.75
19676;BME280;39539;52.202;9.876;2022-11-20T09:29:05;100288.31;;;-1.11;99.47
19676;BME280;39539;52.202;9.876;2022-11-20T09:31:31;100296.16;;;-0.74;100.00
19676;BME280;39539;52.202;9.876;2022-11-20T09:33:57;100302.63;;;-0.41;99.50
19676;BME280;39539;52.202;9.876;2022-11-20T09:36:22;100313.19;;;-0.05;97.30
19676;BME280;39539;52.202;9.876;2022-11-20T09:38:48;100318.88;;;0.26;96.71
19676;BME280;39539;52.202;9.876;2022-11-20T09:41:52;100323.75;;;0.57;96.48
19676;BME280;39539;52.202;9.876;2022-11-20T09:44:42;100314.06;;;0.75;94.39
19676;BME280;39539;52.202;9.876;2022-11-20T09:47:20;100313.47;;;0.81;92.30
19676;BME280;39539;52.202;9.876;2022-11-20T09:52:44;100288.13;;;0.82;90.18
19676;BME280;39539;52.202;9.876;2022-11-20T09:55:14;100265.31;;;0.48;89.03
19676;BME280;39539;52.202;9.876;2022-11-20T09:57:42;100269.72;;;-0.06;90.48
19676;BME280;39539;52.202;9.876;2022-11-20T10:00:12;100259.38;;;-0.43;92.95
19676;BME280;39539;52.202;9.876;2022-11-20T10:02:48;100253.28;;;-0.99;95.68
19676;BME280;39539;52.202;9.876;2022-11-20T10:05:24;100252.97;;;-0.86;100.00
19676;BME280;39539;52.202;9.876;2022-11-20T10:13:17;100281.56;;;-0.12;99.33
19676;BME280;39539;52.202;9.876;2022-11-20T10:18:53;100291.25;;;0.41;97.41
19676;BME280;39539;52.202;9.876;2022-11-20T10:21:44;100304.66;;;0.64;96.56
19676;BME280;39539;52.202;9.876;2022-11-20T10:24:34;100299.75;;;0.87;94.42
19676;BME280;39539;52.202;9.876;2022-11-20T10:29:59;100297.22;;;1.64;90.02
19676;BME280;39539;52.202;9.876;2022-11-20T10:32:33;100302.75;;;1.95;85.91
19676;BME280;39539;52.202;9.876;2022-11-20T10:35:06;100290.00;;;2.09;83.61
19676;BME280;39539;52.202;9.876;2022-11-20T10:37:37;100272.31;;;2.11;83.59
19676;BME280;39539;52.202;9.876;2022-11-20T10:47:58;100274.81;;;2.61;81.79
19676;BME280;39539;52.202;9.876;2022-11-20T10:50:35;100278.91;;;2.72;81.59
19676;BME280;39539;52.202;9.876;2022-11-20T10:55:44;100254.28;;;2.57;81.64
19676;BME280;39539;52.202;9.876;2022-11-20T10:58:22;100261.69;;;2.69;81.82
19676;BME280;39539;52.202;9.876;2022-11-20T11:01:03;100249.22;;;2.63;82.61
19676;BME280;39539;52.202;9.876;2022-11-20T11:03:30;100251.50;;;2.09;83.95
19676;BME280;39539;52.202;9.876;2022-11-20T11:06:08;100239.69;;;1.97;83.28
19676;BME280;39539;52.202;9.876;2022-11-20T11:08:38;100236.91;;;1.98;87.12
19676;BME280;39539;52.202;9.876;2022-11-20T11:11:24;100227.56;;;1.88;84.83
19676;BME280;39539;52.202;9.876;2022-11-20T11:13:50;100226.03;;;1.69;86.71
19676;BME280;39539;52.202;9.876;2022-11-20T11:16:24;100216.03;;;1.56;88.75
19676;BME280;39539;52.202;9.876;2022-11-20T11:18:50;100208.13;;;1.40;86.05
19676;BME280;39539;52.202;9.876;2022-11-20T11:21:23;100211.66;;;0.88;88.03
19676;BME280;39539;52.202;9.876;2022-11-20T11:23:58;100210.50;;;0.64;93.01
19676;BME280;39539;52.202;9.876;2022-11-20T11:26:24;100203.28;;;0.58;93.87
19676;BME280;39539;52.202;9.876;2022-11-20T11:29:02;100207.56;;;0.85;94.64
19676;BME280;39539;52.202;9.876;2022-11-20T11:31:30;100196.09;;;0.86;91.70
19676;BME280;39539;52.202;9.876;2022-11-20T11:34:12;100185.53;;;0.70;93.84
19676;BME280;39539;52.202;9.876;2022-11-20T11:36:38;100184.63;;;0.79;93.92
19676;BME280;39539;52.202;9.876;2022-11-20T11:39:05;100185.94;;;0.83;94.98
19676;BME280;39539;52.202;9.876;2022-11-20T11:41:33;100171.97;;;0.66;93.28
19676;BME280;39539;52.202;9.876;2022-11-20T11:44:30;100191.72;;;0.95;94.80
19676;BME280;39539;52.202;9.876;2022-11-20T11:47:23;100185.50;;;0.88;93.61
19676;BME280;39539;52.202;9.876;2022-11-20T11:49:49;100190.69;;;1.14;92.89
19676;BME280;39539;52.202;9.876;2022-11-20T11:52:25;100183.34;;;1.26;91.66
19676;BME280;39539;52.202;9.876;2022-11-20T11:54:58;100178.56;;;0.79;91.10
19676;BME280;39539;52.202;9.876;2022-11-20T12:00:13;100169.63;;;1.32;92.19
19676;BME280;39539;52.202;9.876;2022-11-20T12:03:08;100178.72;;;1.62;91.00
19676;BME280;39539;52.202;9.876;2022-11-20T12:05:40;100167.72;;;1.67;88.40
19676;BME280;39539;52.202;9.876;2022-11-20T12:11:29;100162.53;;;2.32;87.49
19676;BME280;39539;52.202;9.876;2022-11-20T12:15:58;100155.81;;;2.21;86.70
19676;BME280;39539;52.202;9.876;2022-11-20T12:18:24;100145.31;;;1.80;86.41
19676;BME280;39539;52.202;9.876;2022-11-20T12:20:57;100165.00;;;1.85;89.38
19676;BME280;39539;52.202;9.876;2022-11-20T12:23:35;100158.59;;;2.03;88.90
19676;BME280;39539;52.202;9.876;2022-11-20T12:26:12;100163.34;;;2.08;88.87
19676;BME280;39539;52.202;9.876;2022-11-20T12:31:38;100156.16;;;2.27;88.60
19676;BME280;39539;52.202;9.876;2022-11-20T12:34:32;100151.56;;;2.04;88.73
19676;BME280;39539;52.202;9.876;2022-11-20T12:39:40;100146.63;;;2.17;88.19
19676;BME280;39539;52.202;9.876;2022-11-20T12:45:22;100131.72;;;2.18;88.75
19676;BME280;39539;52.202;9.876;2022-11-20T12:47:54;100139.28;;;1.80;91.12
19676;BME280;39539;52.202;9.876;2022-11-20T12:53:25;100132.72;;;1.76;93.57
19676;BME280;39539;52.202;9.876;2022-11-20T13:01:49;100114.84;;;2.20;92.70
19676;BME280;39539;52.202;9.876;2022-11-20T13:07:06;100121.09;;;2.11;90.79
19676;BME280;39539;52.202;9.876;2022-11-20T13:09:35;100114.22;;;1.53;94.41
19676;BME280;39539;52.202;9.876;2022-11-20T13:12:33;100125.69;;;1.76;95.42
19676;BME280;39539;52.202;9.876;2022-11-20T13:15:40;100117.31;;;1.97;94.62
19676;BME280;39539;52.202;9.876;2022-11-20T13:18:09;100116.69;;;1.95;94.74
19676;BME280;39539;52.202;9.876;2022-11-20T13:20:41;100113.72;;;2.07;94.79
19676;BME280;39539;52.202;9.876;2022-11-20T13:23:07;100115.69;;;2.05;93.34
19676;BME280;39539;52.202;9.876;2022-11-20T13:25:35;100118.78;;;2.00;94.02
19676;BME280;39539;52.202;9.876;2022-11-20T13:30:47;100122.41;;;1.99;94.53
19676;BME280;39539;52.202;9.876;2022-11-20T13:33:32;100114.53;;;2.07;93.60
19676;BME280;39539;52.202;9.876;2022-11-20T13:36:19;100104.22;;;2.06;94.67
19676;BME280;39539;52.202;9.876;2022-11-20T13:38:51;100095.34;;;2.23;95.63
19676;BME280;39539;52.202;9.876;2022-11-20T13:41:32;100106.91;;;2.53;93.74
19676;BME280;39539;52.202;9.876;2022-11-20T13:44:15;100107.22;;;2.66;91.59
19676;BME280;39539;52.202;9.876;2022-11-20T13:46:47;100095.03;;;2.74;91.00
19676;BME280;39539;52.202;9.876;2022-11-20T13:49:26;100110.09;;;2.80;91.59
19676;BME280;39539;52.202;9.876;2022-11-20T14:00:24;100100.66;;;2.54;91.89
19676;BME280;39539;52.202;9.876;2022-11-20T14:03:13;100100.00;;;2.60;92.34
19676;BME280;39539;52.202;9.876;2022-11-20T14:05:59;100088.88;;;2.58;91.51
19676;BME280;39539;52.202;9.876;2022-11-20T14:08:39;100088.56;;;2.53;91.32
19676;BME280;39539;52.202;9.876;2022-11-20T14:11:20;100106.72;;;2.63;90.95